CDT,Max TemperatureF,Mean TemperatureF,Min TemperatureF,Max Dew PointF,MeanDew PointF,Min DewpointF,Max Humidity, Mean Humidity, Min Humidity, Max Sea Level PressureIn, Mean Sea Level PressureIn, Min Sea Level PressureIn, Max VisibilityMiles, Mean VisibilityMiles, Min VisibilityMiles, Max Wind SpeedMPH, Mean Wind SpeedMPH, Max Gust SpeedMPH,PrecipitationIn, CloudCover, Events, WindDirDegrees
2013-4-1,32,26,21,16,10,7,66,50,38,30.19,30.12,29.94,10,10,10,16,10,26,0.00,1,,307
2013-4-2,34,27,20,14,11,7,68,53,34,30.34,30.26,30.20,10,10,10,16,9,23,0.00,0,,299
2013-4-3,41,30,18,17,13,6,88,51,26,30.48,30.37,30.25,10,10,10,12,4,,0.00,0,,184
2013-4-4,50,40,30,31,23,17,65,52,39,30.23,30.06,29.97,10,10,10,18,8,28,0.00,1,,260
2013-4-5,43,34,24,28,21,17,96,63,40,30.27,30.19,30.09,10,8,1,10,6,,0.00,3,Snow,92
2013-4-6,52,40,28,48,33,26,100,86,52,30.16,29.83,29.50,10,7,1,18,8,25,0.06,6,Rain-Snow,121
2013-4-7,44,39,34,35,31,29,82,75,61,29.97,29.86,29.61,10,10,10,20,11,25,0.00,5,,319
2013-4-8,38,36,32,38,34,28,100,92,75,30.04,29.82,29.72,10,6,1,14,6,,0.08,7,Rain,40
2013-4-9,37,34,31,37,34,23,100,96,59,30.09,30.01,29.95,10,5,0,16,9,24,0.45,8,Fog-Rain,51
2013-4-10,32,30,28,32,29,24,100,93,73,30.18,30.06,29.98,10,6,2,15,8,23,0.05,8,Rain,45
2013-4-11,33,32,30,32,30,24,100,95,75,29.97,29.75,29.60,10,3,1,30,17,41,0.17,8,Rain,63
2013-4-12,35,32,30,32,30,28,100,93,81,29.78,29.65,29.56,10,6,1,12,8,,0.04,8,Rain-Snow,2
2013-4-13,36,32,28,30,26,21,100,81,60,30.01,29.82,29.74,10,8,2,17,10,22,0.00,8,Rain-Snow,276
2013-4-14,37,31,26,36,28,23,96,87,79,30.03,29.89,29.61,10,6,0,17,7,25,0.15,7,Fog-Snow,78
2013-4-15,55,45,34,45,36,25,100,85,37,29.97,29.72,29.61,10,4,0,24,6,30,0.21,5,Fog-Rain,232
2013-4-16,46,38,29,30,27,25,92,67,46,30.34,30.16,29.97,10,10,10,14,8,21,0.00,3,,293
2013-4-17,39,33,28,38,32,27,100,88,71,30.37,30.17,29.93,10,8,2,17,8,24,0.32,6,Rain,64
2013-4-18,44,40,35,45,38,35,100,99,87,29.87,29.51,29.30,10,3,0,21,11,34,0.27,8,Fog-Rain,56
2013-4-19,36,32,26,34,27,14,100,81,60,29.93,29.44,29.27,10,6,1,26,16,41,0.00,7,Rain-Snow,277
2013-4-20,41,30,21,20,13,6,81,52,25,30.41,30.22,29.96,10,10,10,15,8,22,0.00,0,,320
2013-4-21,48,38,28,33,28,20,100,80,46,30.51,30.41,30.22,10,5,0,16,7,21,0.03,6,Fog-Rain-Snow,138
2013-4-22,61,50,39,42,37,32,93,64,42,30.22,30.14,29.98,10,9,5,14,7,28,0.10,5,Rain,154
2013-4-23,50,42,34,45,32,24,96,74,57,30.03,29.96,29.88,10,10,4,17,9,23,0.01,7,Rain,315
2013-4-24,50,38,27,32,22,17,92,53,27,30.05,30.00,29.95,10,10,10,17,6,24,0.00,2,,271
2013-4-25,39,39,38,34,33,32,81,79,75,29.95,29.94,29.94,10,10,10,14,13,20,0.00,8,,240
2013-4-26,,,,,,,,,,,,,,,,,,,,,,
2013-4-27,,,,,,,,,,,,,,,,,,,,,,
2013-4-28,,,,,,,,,,,,,,,,,,,,,,
2013-4-29,,,,,,,,,,,,,,,,,,,,,,
2013-4-30,,,,,,,,,,,,,,,,,,,,,,